Rankings de siempre
Mejores tiempos personales válidos de equipo a través de todos los eventos y temporadas. Cada equipo aparece una vez por división.
Busca por nombre y abre la página donde está clasificado este récord de división.
23,833 equipos clasificados
| Pos. | Pos. AG | Equipo | Nacionalidad | Categoría de edad | TiempoMejor tiempo | Diferencia |
|---|---|---|---|---|---|---|
| 21651 | #3426 | Luís Faria & Maxime DentuM 25-29 · AG #3426 | -- | M 25-29 | 1:28:47 | +40:16 |
| 21652 | #3428 | 敏杰 林 & 淦龙 黎CHN · M 25-29 · AG #3428 | CHN | M 25-29 | 1:28:48 | +40:17 |
| 21653 | #1295 | Jeremy Schwinte & Maxime MeyerFRA · M 16-24 · AG #1295 | FRA | M 16-24 | 1:28:48 | +40:17 |
| 21654 | #8564 | Rory Willetts-Smith & Rhys WawrychAUS · M 30-34 · AG #8564 | AUS | M 30-34 | 1:28:48 | +40:17 |
| 21655 | -- | Ryan UNG & Brendon KIMCAM · M MU29 | CAM | M MU29 | 1:28:48 | +40:17 |
| 21656 | #3427 | Lucius Flores & Jimmy ZhangUSA · M 25-29 · AG #3427 | USA | M 25-29 | 1:28:48 | +40:17 |
| 21657 | #3429 | Thomas Bailey & Kieran PrinslooGBR · M 25-29 · AG #3429 | GBR | M 25-29 | 1:28:49 | +40:18 |
| 21658 | -- | Ids Kooistra & Melle BosmaNED · M MU29 | NED | M MU29 | 1:28:49 | +40:18 |
| 21659 | #8565 | Kian Jun & Dennis NguyenUSA · M 30-34 · AG #8565 | USA | M 30-34 | 1:28:49 | +40:18 |
| 21660 | #3430 | Alexander Cobos & Shawn DograCAN · M 25-29 · AG #3430 | CAN | M 25-29 | 1:28:50 | +40:19 |
| 21661 | #3250 | Shoma Haruno & Yutaka ItoJPN · M 35-39 · AG #3250 | JPN | M 35-39 | 1:28:50 | +40:19 |
| 21662 | #1296 | Bruno Andreas & Jannis SchunackGER · M 16-24 · AG #1296 | GER | M 16-24 | 1:28:50 | +40:19 |
| 21663 | -- | Freek Mombarg & Jarno HijmansNED · M MU29 | NED | M MU29 | 1:28:51 | +40:20 |
| 21664 | -- | DJ Niculescu & Stephen BarongiM MU29 | -- | M MU29 | 1:28:51 | +40:20 |
| 21665 | #3431 | Bas de Wit & Thomas HofNED · M 25-29 · AG #3431 | NED | M 25-29 | 1:28:52 | +40:21 |
| 21666 | #563 | Patrick Veltman & Lars HuizingaNED · M 45-49 · AG #563 | NED | M 45-49 | 1:28:52 | +40:21 |
| 21667 | #8566 | Arthur Marchand & Adrien ThaiFRA · M 30-34 · AG #8566 | FRA | M 30-34 | 1:28:52 | +40:21 |
| 21668 | #8567 | matthieu vrignon & pierre-etienne sagotFRA · M 30-34 · AG #8567 | FRA | M 30-34 | 1:28:52 | +40:21 |
| 21669 | #2556 | Ajinkya Patil & Sameer MhatreIND · M 40-44 · AG #2556 | IND | M 40-44 | 1:28:52 | +40:21 |
| 21670 | #564 | Ram Toh & Adriel HairulSIN · M 45-49 · AG #564 | SIN | M 45-49 | 1:28:52 | +40:21 |
| 21671 | #2557 | Klaus Reisner & Daniel GeithnerGER · M 40-44 · AG #2557 | GER | M 40-44 | 1:28:53 | +40:22 |
| 21672 | #2558 | Angel Garcia & Francisco YañezMEX · M 40-44 · AG #2558 | MEX | M 40-44 | 1:28:53 | +40:22 |
| 21673 | #3432 | Daniel Bolón Amarelle & Martín Caamaño RodríguezESP · M 25-29 · AG #3432 | ESP | M 25-29 | 1:28:54 | +40:23 |
| 21674 | #2559 | Paolo Simonetti & Francesco BarberiniITA · M 40-44 · AG #2559 | ITA | M 40-44 | 1:28:54 | +40:23 |
| 21675 | #25 | Siva Agasti & Asykal RashidSIN · M 16-29 · AG #25 | SIN | M 16-29 | 1:28:54 | +40:23 |
Página 867 de 954